Time;durP1;ratioP1;P1;durP2;ratioP2;P2;SDS_P1;SDS_P2;PMS_P1;PMS_P2;Temp;Humidity;BMP_temperature;BMP_pressure;BME280_temperature;BME280_humidity;BME280_pressure;Samples;Min_cycle;Max_cycle;Signal;HPM_P1;HPM_P2
2022/08/23 00:01:38;;;;;;;9.38;5.72;;;18.60;99.90;;;;;;4916833;29;20050;-76
2022/08/23 00:04:19;;;;;;;9.85;5.88;;;18.60;99.90;;;;;;4917360;29;20632;-76
2022/08/23 00:06:46;;;;;;;8.50;5.72;;;18.60;99.90;;;;;;4928901;29;20388;-76
2022/08/23 00:09:11;;;;;;;9.65;5.93;;;18.60;99.90;;;;;;4901736;29;20054;-76
2022/08/23 00:11:42;;;;;;;12.52;6.43;;;18.50;99.90;;;;;;4915183;29;20039;-77
2022/08/23 00:14:12;;;;;;;13.90;6.05;;;18.50;99.90;;;;;;4932374;29;20046;-77
2022/08/23 00:16:40;;;;;;;12.82;5.75;;;18.50;99.90;;;;;;4931074;29;20110;-77
2022/08/23 00:19:07;;;;;;;12.50;6.38;;;18.50;99.90;;;;;;4915649;29;20044;-76
2022/08/23 00:21:37;;;;;;;13.45;6.97;;;18.40;99.90;;;;;;4930364;29;20042;-76
2022/08/23 00:24:06;;;;;;;14.57;6.28;;;18.40;99.90;;;;;;4916913;29;20507;-77
2022/08/23 00:26:53;;;;;;;14.20;5.85;;;18.40;99.90;;;;;;4916157;29;20043;-77
2022/08/23 00:29:20;;;;;;;13.23;6.50;;;18.40;99.90;;;;;;4915181;29;20046;-77
2022/08/23 00:31:46;;;;;;;16.95;7.03;;;18.40;99.90;;;;;;4933245;29;20032;-77
2022/08/23 00:34:12;;;;;;;13.02;5.85;;;18.30;99.90;;;;;;4916109;29;20048;-77
2022/08/23 00:36:39;;;;;;;10.45;6.68;;;18.30;99.90;;;;;;4911428;29;20055;-77
2022/08/23 00:39:05;;;;;;;13.13;8.70;;;18.30;99.90;;;;;;4932361;29;20171;-77
2022/08/23 00:41:32;;;;;;;17.88;8.98;;;18.30;99.90;;;;;;4913784;29;20404;-77
2022/08/23 00:49:37;;;;;;;14.43;10.18;;;18.10;99.90;;;;;;4926965;29;20086;-76
2022/08/23 00:52:21;;;;;;;12.57;9.70;;;18.10;99.90;;;;;;4920039;29;20455;-77
2022/08/23 00:54:47;;;;;;;13.63;9.50;;;18.10;99.90;;;;;;4919565;29;20036;-77
2022/08/23 00:57:18;;;;;;;12.50;9.38;;;18.00;99.90;;;;;;4935120;29;20488;-77
2022/08/23 00:59:44;;;;;;;11.95;8.70;;;18.00;99.90;;;;;;4936227;29;20046;-77
2022/08/23 01:02:10;;;;;;;12.30;8.65;;;18.00;99.90;;;;;;4935833;29;20047;-77
2022/08/23 01:04:43;;;;;;;14.55;8.15;;;17.90;99.90;;;;;;4889008;29;20514;-77
2022/08/23 01:07:17;;;;;;;11.05;8.38;;;17.90;99.90;;;;;;4936210;29;20062;-77
2022/08/23 01:09:46;;;;;;;12.82;8.90;;;17.90;99.90;;;;;;4933236;29;20066;-77
2022/08/23 01:12:18;;;;;;;13.00;7.82;;;17.80;99.90;;;;;;4929691;29;20051;-76
2022/08/23 01:14:56;;;;;;;15.57;8.43;;;17.80;99.90;;;;;;4918031;29;20067;-77
2022/08/23 01:17:28;;;;;;;12.85;8.77;;;17.80;99.90;;;;;;4913825;29;20051;-76
2022/08/23 01:20:00;;;;;;;12.95;8.43;;;17.70;99.90;;;;;;4914090;29;20496;-77
2022/08/23 01:22:52;;;;;;;11.75;7.85;;;17.70;99.90;;;;;;4919119;29;20040;-77
2022/08/23 01:25:20;;;;;;;10.20;7.30;;;17.70;99.90;;;;;;4934282;29;20067;-77
2022/08/23 01:27:47;;;;;;;17.52;7.78;;;17.70;99.90;;;;;;4918522;29;20044;-76
2022/08/23 01:30:15;;;;;;;13.98;8.32;;;17.60;99.90;;;;;;4919521;29;20404;-77
2022/08/23 01:32:51;;;;;;;13.57;7.93;;;17.60;99.90;;;;;;4932938;29;20048;-77
2022/08/23 01:35:19;;;;;;;12.85;8.32;;;17.60;99.90;;;;;;4932109;29;20040;-76
2022/08/23 01:37:45;;;;;;;10.02;7.80;;;17.50;99.90;;;;;;4916645;29;20051;-77
2022/08/23 01:40:12;;;;;;;12.38;7.93;;;17.50;99.90;;;;;;4934209;29;20040;-77
2022/08/23 01:42:40;;;;;;;14.38;8.00;;;17.50;99.90;;;;;;4932444;29;20044;-77
2022/08/23 01:45:10;;;;;;;10.40;8.05;;;17.50;99.90;;;;;;4900935;29;20044;-77
2022/08/23 01:47:36;;;;;;;14.02;8.15;;;17.50;99.90;;;;;;4935273;29;20062;-77
2022/08/23 01:50:03;;;;;;;12.38;8.07;;;17.40;99.90;;;;;;4919567;29;20048;-77
2022/08/23 01:52:28;;;;;;;10.10;8.48;;;17.40;99.90;;;;;;4919242;29;20055;-77
2022/08/23 01:54:56;;;;;;;9.88;7.70;;;17.40;99.90;;;;;;4901756;29;20039;-76
2022/08/23 01:57:22;;;;;;;14.10;8.80;;;17.40;99.90;;;;;;4903650;29;20511;-77
2022/08/23 01:59:47;;;;;;;11.80;8.50;;;17.30;99.90;;;;;;4918577;29;20540;-77
2022/08/23 02:02:14;;;;;;;12.75;8.35;;;17.30;99.90;;;;;;4918395;29;20126;-77
2022/08/23 02:04:40;;;;;;;10.82;7.93;;;17.30;99.90;;;;;;4919446;29;20111;-77
2022/08/23 02:07:05;;;;;;;12.23;7.78;;;17.30;99.90;;;;;;4918502;29;20123;-77
2022/08/23 02:09:31;;;;;;;15.15;8.27;;;17.30;99.90;;;;;;4931849;29;20624;-77
2022/08/23 02:11:57;;;;;;;11.07;7.65;;;17.30;99.90;;;;;;4934397;29;20043;-77
2022/08/23 02:14:22;;;;;;;10.70;7.70;;;17.20;99.90;;;;;;4919350;29;20050;-76
2022/08/23 02:16:54;;;;;;;10.45;7.82;;;17.20;99.90;;;;;;4933049;29;20051;-77
2022/08/23 02:19:20;;;;;;;12.60;7.88;;;17.20;99.90;;;;;;4917885;29;20046;-76
2022/08/23 02:21:46;;;;;;;11.77;8.65;;;17.20;99.90;;;;;;4916710;29;20046;-77
2022/08/23 02:24:15;;;;;;;10.48;8.52;;;17.20;99.90;;;;;;4932985;29;20401;-77
2022/08/23 02:26:45;;;;;;;11.90;8.07;;;17.10;99.90;;;;;;4917727;29;20031;-77
2022/08/23 02:29:11;;;;;;;9.93;7.18;;;17.10;99.90;;;;;;4914598;29;20131;-77
2022/08/23 02:31:38;;;;;;;10.77;7.88;;;17.10;99.90;;;;;;4903548;29;20608;-76
2022/08/23 02:34:04;;;;;;;11.40;7.45;;;17.10;99.90;;;;;;4915943;29;20555;-77
2022/08/23 02:36:31;;;;;;;11.73;8.02;;;17.10;99.90;;;;;;4929985;29;20047;-76
2022/08/23 02:38:57;;;;;;;11.20;7.72;;;17.10;99.90;;;;;;4917448;29;20040;-77
2022/08/23 02:41:23;;;;;;;10.98;7.95;;;17.10;99.90;;;;;;4899300;29;20269;-77
2022/08/23 02:43:53;;;;;;;12.75;8.00;;;17.00;99.90;;;;;;4917838;29;20122;-77
2022/08/23 02:46:20;;;;;;;12.85;8.07;;;17.00;99.90;;;;;;4915692;29;20575;-77
2022/08/23 02:48:46;;;;;;;11.88;7.75;;;17.00;99.90;;;;;;4916326;29;20061;-77
2022/08/23 02:51:12;;;;;;;14.60;8.35;;;17.00;99.90;;;;;;4917925;29;20090;-77
2022/08/23 02:53:38;;;;;;;11.38;8.57;;;16.90;99.90;;;;;;4917768;29;20040;-77
2022/08/23 02:56:04;;;;;;;12.20;8.48;;;16.90;99.90;;;;;;4917687;29;20055;-77
2022/08/23 02:58:30;;;;;;;12.55;8.82;;;16.90;99.90;;;;;;4933863;29;20044;-77
2022/08/23 03:00:57;;;;;;;10.57;8.27;;;16.90;99.90;;;;;;4916605;29;20055;-77
2022/08/23 03:03:22;;;;;;;9.98;8.02;;;16.90;99.90;;;;;;4917391;29;20090;-76
2022/08/23 03:05:49;;;;;;;10.15;8.20;;;16.80;99.90;;;;;;4916124;29;20044;-76
2022/08/23 03:08:15;;;;;;;12.25;8.27;;;16.80;99.90;;;;;;4932875;29;20101;-77
2022/08/23 03:10:43;;;;;;;9.82;8.18;;;16.80;99.90;;;;;;4900711;29;20035;-76
2022/08/23 03:13:09;;;;;;;10.80;8.48;;;16.80;99.90;;;;;;4916925;29;20501;-77
2022/08/23 03:15:34;;;;;;;14.45;8.95;;;16.80;99.90;;;;;;4914484;29;20103;-77
2022/08/23 03:18:00;;;;;;;12.40;9.30;;;16.80;99.90;;;;;;4901764;29;20515;-77
2022/08/23 03:20:27;;;;;;;13.85;9.25;;;16.80;99.90;;;;;;4916400;29;20171;-77
2022/08/23 03:22:52;;;;;;;12.20;8.82;;;16.80;99.90;;;;;;4917569;29;20042;-77
2022/08/23 03:25:18;;;;;;;12.65;8.70;;;16.80;99.90;;;;;;4918068;29;20417;-77
2022/08/23 03:27:44;;;;;;;12.00;9.10;;;16.80;99.90;;;;;;4900472;29;20043;-77
2022/08/23 03:30:10;;;;;;;12.25;9.57;;;16.80;99.90;;;;;;4917173;29;20054;-77
2022/08/23 03:32:36;;;;;;;10.90;9.13;;;16.80;99.90;;;;;;4900610;29;20039;-77
2022/08/23 03:35:03;;;;;;;12.32;9.75;;;16.80;99.90;;;;;;4896880;29;20040;-77
2022/08/23 03:37:28;;;;;;;12.02;9.90;;;16.80;99.90;;;;;;4900777;29;20397;-77
2022/08/23 03:39:54;;;;;;;13.20;9.65;;;16.80;99.90;;;;;;4916319;29;20039;-77
2022/08/23 03:42:20;;;;;;;11.07;9.70;;;16.80;99.90;;;;;;4901477;29;20508;-77
2022/08/23 03:44:46;;;;;;;9.98;8.75;;;16.80;99.90;;;;;;4917816;29;20042;-76
2022/08/23 03:47:11;;;;;;;11.10;9.32;;;16.80;99.90;;;;;;4933211;29;20131;-77
2022/08/23 03:49:37;;;;;;;11.52;10.30;;;16.80;99.90;;;;;;4899654;29;20095;-77
2022/08/23 03:52:04;;;;;;;13.95;9.80;;;16.80;99.90;;;;;;4932833;29;20039;-77
2022/08/23 03:54:30;;;;;;;15.07;9.57;;;16.80;99.90;;;;;;4915249;29;20039;-77
2022/08/23 03:57:02;;;;;;;11.65;8.77;;;16.80;99.90;;;;;;4899120;29;20515;-77
2022/08/23 03:59:29;;;;;;;12.18;9.38;;;16.80;99.90;;;;;;4933362;29;20066;-77
2022/08/23 04:01:55;;;;;;;11.52;9.68;;;16.80;99.90;;;;;;4913776;29;20079;-77
2022/08/23 04:04:21;;;;;;;10.60;9.15;;;16.80;99.90;;;;;;4915848;29;20064;-77
2022/08/23 04:06:47;;;;;;;10.32;9.32;;;16.80;99.90;;;;;;4917482;29;20051;-77
2022/08/23 04:09:14;;;;;;;11.32;9.20;;;16.80;99.90;;;;;;4915532;29;20127;-77
2022/08/23 04:11:40;;;;;;;11.07;9.98;;;16.80;99.90;;;;;;4902684;29;20040;-77
2022/08/23 04:14:07;;;;;;;12.50;9.48;;;16.80;99.90;;;;;;4917397;29;20075;-77
2022/08/23 04:16:36;;;;;;;14.57;11.57;;;16.80;99.90;;;;;;4934620;29;20047;-77
2022/08/23 04:19:07;;;;;;;13.13;11.13;;;16.80;99.90;;;;;;4948591;29;20103;-77
2022/08/23 04:21:35;;;;;;;13.73;11.32;;;16.80;99.90;;;;;;4917503;29;20381;-77
2022/08/23 04:24:01;;;;;;;14.30;11.07;;;16.70;99.90;;;;;;4912015;29;20067;-77
2022/08/23 04:26:27;;;;;;;12.68;11.32;;;16.70;99.90;;;;;;4922229;29;20035;-77
2022/08/23 04:28:53;;;;;;;14.30;11.68;;;16.70;99.90;;;;;;4920924;29;20063;-77
2022/08/23 04:31:20;;;;;;;16.13;10.38;;;16.70;99.90;;;;;;4916525;29;20431;-77
2022/08/23 04:33:46;;;;;;;13.10;11.23;;;16.70;99.90;;;;;;4903142;29;20243;-77
2022/08/23 04:36:12;;;;;;;12.23;11.00;;;16.70;99.90;;;;;;4928523;29;20119;-77
2022/08/23 04:38:38;;;;;;;14.73;11.75;;;16.70;99.90;;;;;;4934841;29;20139;-77
2022/08/23 04:43:49;;;;;;;15.23;11.57;;;16.70;99.90;;;;;;4923743;29;20046;-77
2022/08/23 04:46:15;;;;;;;11.75;10.30;;;16.60;99.90;;;;;;4920193;29;21374;-77
2022/08/23 04:48:43;;;;;;;12.65;10.45;;;16.60;99.90;;;;;;4935212;29;20130;-76
2022/08/23 04:51:09;;;;;;;13.82;11.73;;;16.60;99.90;;;;;;4919720;29;20043;-77
2022/08/23 04:53:35;;;;;;;15.15;11.93;;;16.60;99.90;;;;;;4921819;29;20515;-77
2022/08/23 04:56:03;;;;;;;15.88;12.48;;;16.70;99.90;;;;;;4920381;29;20040;-77
2022/08/23 04:58:30;;;;;;;14.48;12.60;;;16.70;99.90;;;;;;4936028;29;20047;-76
2022/08/23 05:01:01;;;;;;;17.52;13.52;;;16.70;99.90;;;;;;4936393;29;20043;-77
2022/08/23 05:03:28;;;;;;;17.88;13.02;;;16.70;99.90;;;;;;4933756;29;20050;-77
2022/08/23 05:05:56;;;;;;;17.67;13.95;;;16.80;99.90;;;;;;4919142;29;20503;-76
2022/08/23 05:08:23;;;;;;;15.50;13.13;;;16.80;99.90;;;;;;4901788;29;20366;-76
2022/08/23 05:10:49;;;;;;;16.98;13.32;;;16.80;99.90;;;;;;4904257;29;21118;-77
2022/08/23 05:13:15;;;;;;;16.10;13.60;;;16.90;99.90;;;;;;4904720;29;20050;-76
2022/08/23 05:15:41;;;;;;;21.92;15.68;;;16.90;99.90;;;;;;4918621;29;20039;-76
2022/08/23 05:18:06;;;;;;;22.15;15.52;;;17.00;99.90;;;;;;4931010;29;20040;-76
2022/08/23 05:20:33;;;;;;;20.15;15.57;;;17.00;99.90;;;;;;4933297;29;20519;-77
2022/08/23 05:23:00;;;;;;;17.75;15.23;;;17.00;99.90;;;;;;4931956;29;20396;-77
2022/08/23 05:25:48;;;;;;;19.38;15.45;;;17.10;99.90;;;;;;4919290;29;20047;-76
2022/08/23 05:28:11;;;;;;;18.92;14.77;;;17.10;99.90;;;;;;4917775;29;20054;-76
2022/08/23 05:30:37;;;;;;;20.23;15.05;;;17.20;99.90;;;;;;4917715;29;20047;-76
2022/08/23 05:33:04;;;;;;;18.00;14.93;;;17.20;99.90;;;;;;4920583;29;20043;-77
2022/08/23 05:35:30;;;;;;;21.15;15.23;;;17.30;99.90;;;;;;4919213;29;20150;-76
2022/08/23 05:37:59;;;;;;;16.95;15.07;;;17.30;99.90;;;;;;4919927;29;20039;-77
2022/08/23 05:40:26;;;;;;;18.90;14.35;;;17.30;99.90;;;;;;4905065;29;20036;-77
2022/08/23 05:42:52;;;;;;;19.83;14.70;;;17.30;99.90;;;;;;4919177;29;20039;-76
2022/08/23 05:45:18;;;;;;;16.00;13.50;;;17.40;99.90;;;;;;4933242;29;20126;-77
2022/08/23 05:47:45;;;;;;;19.27;13.82;;;17.40;99.90;;;;;;4918139;29;20051;-76
2022/08/23 05:50:12;;;;;;;16.88;14.25;;;17.40;99.90;;;;;;4933208;29;20055;-76
2022/08/23 05:52:38;;;;;;;17.83;14.65;;;17.40;99.90;;;;;;4919362;29;20047;-76
2022/08/23 05:55:05;;;;;;;19.75;14.43;;;17.40;99.90;;;;;;4933469;29;20047;-76
2022/08/23 05:57:33;;;;;;;16.60;14.73;;;17.40;99.90;;;;;;4901366;29;20551;-77
2022/08/23 05:59:59;;;;;;;19.00;15.65;;;17.40;99.90;;;;;;4919115;29;20675;-76
2022/08/23 06:02:25;;;;;;;18.50;15.30;;;17.40;99.90;;;;;;4935338;29;20047;-76
2022/08/23 06:04:50;;;;;;;17.50;15.57;;;17.40;99.90;;;;;;4901752;29;20552;-77
2022/08/23 06:07:16;;;;;;;17.00;15.20;;;17.40;99.90;;;;;;4917780;29;20054;-76
2022/08/23 06:09:42;;;;;;;20.15;16.15;;;17.50;99.90;;;;;;4935625;29;20071;-76
2022/08/23 06:12:07;;;;;;;18.55;14.85;;;17.50;99.90;;;;;;4919310;29;20626;-75
2022/08/23 06:14:33;;;;;;;17.52;15.60;;;17.50;99.90;;;;;;4918134;29;20054;-76
2022/08/23 06:16:59;;;;;;;20.08;16.15;;;17.40;99.90;;;;;;4931835;29;20036;-76
2022/08/23 06:19:25;;;;;;;19.90;15.23;;;17.50;99.90;;;;;;4930034;29;20484;-77
2022/08/23 06:21:51;;;;;;;17.33;15.40;;;17.50;99.90;;;;;;4918859;29;20074;-76
2022/08/23 06:24:17;;;;;;;17.55;15.23;;;17.50;99.90;;;;;;4934121;29;20130;-76
2022/08/23 06:26:44;;;;;;;16.17;14.65;;;17.50;99.90;;;;;;4903367;29;20468;-76
2022/08/23 06:29:13;;;;;;;19.73;15.45;;;17.40;99.90;;;;;;4918158;29;20144;-76
2022/08/23 06:31:47;;;;;;;17.30;15.45;;;17.50;99.90;;;;;;4935541;29;20032;-77
2022/08/23 06:34:16;;;;;;;17.42;15.60;;;17.50;99.90;;;;;;4947304;29;20027;-76
2022/08/23 06:36:42;;;;;;;17.67;15.93;;;17.50;99.90;;;;;;4931184;29;20456;-76
2022/08/23 06:39:09;;;;;;;17.38;15.52;;;17.50;99.90;;;;;;4916063;29;20072;-77
2022/08/23 06:41:37;;;;;;;19.33;16.75;;;17.60;99.90;;;;;;4913993;29;20074;-76
2022/08/23 06:44:04;;;;;;;19.25;16.00;;;17.70;99.90;;;;;;4918585;29;20071;-76
2022/08/23 06:46:31;;;;;;;18.23;14.88;;;17.90;99.90;;;;;;4918509;29;20428;-77
2022/08/23 06:48:59;;;;;;;15.02;13.65;;;18.00;99.90;;;;;;4913374;29;20089;-76
2022/08/23 06:51:40;;;;;;;17.95;14.38;;;18.30;99.90;;;;;;4918482;29;20066;-77
2022/08/23 06:54:09;;;;;;;17.17;13.63;;;18.50;99.90;;;;;;4933041;29;20484;-76
2022/08/23 06:56:35;;;;;;;14.60;13.13;;;18.70;99.90;;;;;;4918049;29;20081;-77
2022/08/23 06:59:05;;;;;;;15.07;13.45;;;18.80;99.90;;;;;;4932792;29;20052;-77
2022/08/23 07:01:39;;;;;;;13.10;11.80;;;18.90;99.90;;;;;;4901038;29;20132;-76
2022/08/23 07:04:08;;;;;;;15.52;12.90;;;19.10;99.90;;;;;;4918199;29;20103;-77
2022/08/23 07:06:34;;;;;;;16.77;11.05;;;19.20;99.90;;;;;;4917415;29;20067;-76
2022/08/23 07:09:01;;;;;;;13.00;10.65;;;19.40;99.90;;;;;;4934220;29;20051;-77
2022/08/23 07:11:30;;;;;;;11.82;10.65;;;19.50;99.90;;;;;;4917215;29;20408;-76
2022/08/23 07:13:59;;;;;;;12.80;11.50;;;19.50;99.90;;;;;;4933012;29;20126;-77
2022/08/23 07:16:30;;;;;;;16.92;11.55;;;19.60;99.90;;;;;;4932919;29;20055;-76
2022/08/23 07:18:56;;;;;;;14.10;12.52;;;19.60;99.90;;;;;;4917520;29;20044;-77
2022/08/23 07:21:21;;;;;;;16.50;11.45;;;19.70;99.90;;;;;;4932994;29;20043;-76
2022/08/23 07:23:47;;;;;;;13.15;11.45;;;19.60;99.90;;;;;;4910377;29;20480;-76
2022/08/23 07:26:15;;;;;;;12.38;10.88;;;19.60;99.90;;;;;;4932448;29;20381;-76
2022/08/23 07:28:42;;;;;;;14.13;11.35;;;19.60;99.90;;;;;;4922183;29;20043;-77
2022/08/23 07:31:29;;;;;;;15.32;11.52;;;19.70;99.90;;;;;;4932805;29;20405;-77
2022/08/23 07:33:58;;;;;;;15.57;11.13;;;19.90;99.90;;;;;;4927386;29;20591;-77
2022/08/23 07:36:25;;;;;;;14.70;10.52;;;20.10;99.90;;;;;;4933335;29;20118;-77
2022/08/23 07:38:51;;;;;;;14.85;10.40;;;20.30;99.90;;;;;;4933754;29;20047;-77
2022/08/23 07:41:18;;;;;;;14.48;10.48;;;20.50;99.90;;;;;;4933146;29;20122;-76
2022/08/23 07:43:44;;;;;;;12.40;9.48;;;20.70;99.90;;;;;;4931954;29;20130;-76
2022/08/23 07:46:10;;;;;;;13.52;10.13;;;20.80;99.90;;;;;;4931925;29;20143;-76
2022/08/23 07:48:36;;;;;;;15.15;9.55;;;21.00;99.90;;;;;;4932398;29;20102;-76
2022/08/23 07:51:05;;;;;;;14.75;11.07;;;21.20;99.90;;;;;;4931316;29;20040;-77
2022/08/23 07:53:31;;;;;;;14.45;10.32;;;21.30;99.90;;;;;;4926844;29;20044;-76
2022/08/23 07:55:57;;;;;;;11.55;9.80;;;21.30;99.90;;;;;;4933599;29;20039;-76
2022/08/23 07:58:24;;;;;;;10.60;9.57;;;21.30;99.90;;;;;;4917192;29;20058;-76
2022/08/23 08:00:53;;;;;;;10.98;9.45;;;21.30;99.90;;;;;;4930120;29;20063;-76
2022/08/23 08:03:19;;;;;;;12.15;10.02;;;21.30;99.90;;;;;;4912186;29;20134;-77
2022/08/23 08:05:45;;;;;;;12.50;10.13;;;21.30;99.90;;;;;;4932841;29;20043;-77
2022/08/23 08:08:11;;;;;;;13.40;11.52;;;21.30;99.90;;;;;;4932640;29;20526;-77
2022/08/23 08:10:39;;;;;;;12.13;10.68;;;21.30;99.90;;;;;;4897587;29;20134;-77
2022/08/23 08:13:06;;;;;;;12.50;11.23;;;21.30;99.90;;;;;;4929758;29;20567;-77
2022/08/23 08:15:32;;;;;;;12.00;10.48;;;21.30;99.90;;;;;;4933151;29;20048;-77
2022/08/23 08:17:57;;;;;;;11.77;10.32;;;21.40;99.90;;;;;;4947938;29;20050;-77
2022/08/23 08:20:24;;;;;;;14.32;11.60;;;21.40;99.90;;;;;;4915065;29;20392;-76
2022/08/23 08:22:50;;;;;;;13.00;10.55;;;21.40;99.90;;;;;;4932501;29;20114;-76
2022/08/23 08:25:16;;;;;;;14.25;11.18;;;21.40;99.90;;;;;;4914238;29;20457;-75
2022/08/23 08:27:42;;;;;;;12.43;10.80;;;21.50;99.90;;;;;;4932383;29;20377;-76
2022/08/23 08:30:10;;;;;;;11.07;10.00;;;21.50;99.90;;;;;;4933424;29;20051;-77
2022/08/23 08:32:36;;;;;;;14.77;10.40;;;21.50;99.90;;;;;;4929582;29;20496;-76
2022/08/23 08:35:04;;;;;;;12.75;11.45;;;21.60;99.90;;;;;;4930356;29;20051;-76
2022/08/23 08:37:30;;;;;;;12.65;10.57;;;21.70;99.90;;;;;;4917304;29;20043;-76
2022/08/23 08:39:57;;;;;;;11.80;10.65;;;21.80;99.90;;;;;;4928596;29;20051;-76
2022/08/23 08:42:32;;;;;;;12.50;10.55;;;21.90;99.90;;;;;;4915097;29;20075;-76
2022/08/23 08:45:03;;;;;;;13.60;10.52;;;21.90;99.90;;;;;;4921809;29;20067;-76
2022/08/23 08:47:55;;;;;;;15.02;11.93;;;22.00;99.90;;;;;;4915791;29;20047;-76
2022/08/23 08:50:36;;;;;;;14.27;10.48;;;22.10;99.90;;;;;;4933382;29;20098;-76
2022/08/23 08:53:08;;;;;;;14.27;10.98;;;22.10;99.90;;;;;;4916428;29;20047;-76
2022/08/23 08:55:43;;;;;;;14.43;11.45;;;22.20;99.90;;;;;;4932412;29;20481;-76
2022/08/23 08:58:18;;;;;;;12.65;11.20;;;22.30;99.90;;;;;;4932656;29;20083;-76
2022/08/23 09:00:45;;;;;;;13.40;10.93;;;22.40;99.90;;;;;;4913470;29;20119;-77
2022/08/23 09:03:14;;;;;;;12.48;11.23;;;22.50;99.90;;;;;;4911907;29;20072;-76
2022/08/23 09:05:56;;;;;;;12.82;11.52;;;22.60;99.90;;;;;;4924478;29;20119;-76
2022/08/23 09:08:48;;;;;;;16.08;11.98;;;22.70;99.90;;;;;;4931326;29;20059;-76
2022/08/23 09:11:34;;;;;;;15.13;11.60;;;22.90;99.90;;;;;;4911821;29;20413;-76
2022/08/23 09:14:21;;;;;;;22.55;10.77;;;23.00;99.90;;;;;;4927064;29;20111;-76
2022/08/23 09:17:33;;;;;;;14.20;12.00;;;23.10;99.90;;;;;;4920712;29;20047;-76
2022/08/23 09:20:03;;;;;;;13.00;10.35;;;23.10;99.90;;;;;;4908343;29;20047;-76
2022/08/23 09:22:50;;;;;;;16.65;10.45;;;23.10;99.90;;;;;;4929387;29;20036;-76
2022/08/23 09:25:17;;;;;;;13.32;10.13;;;23.20;99.90;;;;;;4934684;29;20078;-76
2022/08/23 09:27:43;;;;;;;13.85;10.45;;;23.20;99.90;;;;;;4904600;29;20047;-76
2022/08/23 09:30:13;;;;;;;13.75;10.30;;;23.30;99.90;;;;;;4936034;29;20055;-76
2022/08/23 09:32:42;;;;;;;12.30;9.18;;;23.40;99.90;;;;;;4927056;29;20511;-76
2022/08/23 09:35:19;;;;;;;14.10;10.73;;;23.50;99.90;;;;;;4935914;29;20094;-76
2022/08/23 09:37:58;;;;;;;13.68;10.20;;;23.60;99.90;;;;;;4934934;29;20059;-76
2022/08/23 09:40:33;;;;;;;16.92;10.13;;;23.60;99.90;;;;;;4932411;29;20106;-77
2022/08/23 09:43:16;;;;;;;12.07;8.77;;;23.60;99.90;;;;;;4917110;29;20047;-76
2022/08/23 09:45:56;;;;;;;12.57;8.65;;;23.60;99.90;;;;;;4935232;29;20123;-77
2022/08/23 09:48:42;;;;;;;12.18;9.88;;;23.60;99.90;;;;;;4930004;29;20055;-77
2022/08/23 09:51:28;;;;;;;13.10;9.70;;;23.60;99.90;;;;;;4919066;29;20044;-76
2022/08/23 09:54:08;;;;;;;;;;;23.60;99.90;;;;;;4913815;29;20547;-75
2022/08/23 09:56:46;;;;;;;17.50;9.57;;;23.60;99.90;;;;;;4919965;29;19923;-76
2022/08/23 09:59:27;;;;;;;14.15;9.20;;;23.70;99.90;;;;;;4936563;29;20510;-75
2022/08/23 10:01:56;;;;;;;15.25;9.98;;;23.80;99.90;;;;;;4936060;29;20120;-77
2022/08/23 10:04:39;;;;;;;15.25;9.00;;;23.90;99.90;;;;;;4919707;29;20127;-77
2022/08/23 10:07:37;;;;;;;13.57;10.60;;;23.90;99.90;;;;;;4934637;29;20074;-77
2022/08/23 10:10:19;;;;;;;15.77;10.30;;;23.90;99.90;;;;;;4911546;29;20057;-76
2022/08/23 10:12:45;;;;;;;12.25;8.77;;;23.90;99.90;;;;;;4933549;29;20039;-77
2022/08/23 10:15:13;;;;;;;11.88;8.52;;;23.90;99.90;;;;;;4932600;29;20039;-77
2022/08/23 10:18:08;;;;;;;13.35;7.60;;;24.00;99.90;;;;;;4932688;29;20501;-78
2022/08/23 10:20:40;;;;;;;11.60;7.03;;;24.00;99.90;;;;;;4927030;29;20098;-77
2022/08/23 10:23:32;;;;;;;9.93;6.75;;;24.00;99.90;;;;;;4917888;29;20155;-77
2022/08/23 10:25:59;;;;;;;9.55;6.35;;;24.10;99.90;;;;;;4916262;29;20040;-77
2022/08/23 10:31:52;;;;;;;10.35;7.20;;;24.20;99.90;;;;;;4949952;28;20055;-76
2022/08/23 10:34:42;;;;;;;10.30;7.10;;;24.20;99.90;;;;;;4918180;29;20046;-77
2022/08/23 10:37:26;;;;;;;12.52;7.53;;;24.30;99.90;;;;;;4931881;29;21125;-78
2022/08/23 10:39:59;;;;;;;13.25;7.30;;;24.30;99.90;;;;;;4930205;29;20044;-77
2022/08/23 10:42:53;;;;;;;12.60;6.45;;;24.40;99.90;;;;;;4932226;29;20067;-77
2022/08/23 10:45:35;;;;;;;12.30;8.80;;;24.50;99.90;;;;;;4909159;29;20098;-78
2022/08/23 10:48:27;;;;;;;13.60;7.68;;;24.60;99.90;;;;;;4933048;29;20062;-78
2022/08/23 10:51:26;;;;;;;13.23;7.80;;;24.60;99.90;;;;;;4932382;29;20122;-77
2022/08/23 10:53:59;;;;;;;11.93;6.93;;;24.80;99.90;;;;;;4923936;29;20052;-77
2022/08/23 10:56:26;;;;;;;8.95;6.10;;;24.80;99.90;;;;;;4919038;29;20051;-78
2022/08/23 10:59:02;;;;;;;10.50;7.30;;;24.80;99.90;;;;;;4934924;29;20532;-78
2022/08/23 11:01:44;;;;;;;10.23;5.60;;;24.80;99.90;;;;;;4929572;29;20091;-77
2022/08/23 11:04:32;;;;;;;7.72;5.25;;;24.90;99.90;;;;;;4934995;29;20503;-78
2022/08/23 11:07:13;;;;;;;9.85;4.97;;;25.00;99.90;;;;;;4931584;29;20050;-78
2022/08/23 11:10:06;;;;;;;9.95;4.97;;;25.00;99.90;;;;;;4931614;29;20039;-78
2022/08/23 11:12:48;;;;;;;8.43;5.13;;;25.10;99.90;;;;;;4918950;29;20048;-78
2022/08/23 11:15:36;;;;;;;9.32;4.75;;;25.20;99.90;;;;;;4929139;29;20180;-78
2022/08/23 11:18:06;;;;;;;9.20;4.07;;;25.20;99.90;;;;;;4914884;29;20050;-78
2022/08/23 11:20:52;;;;;;;10.57;3.92;;;25.30;99.90;;;;;;4935169;29;20127;-78
2022/08/23 11:23:39;;;;;;;13.95;4.40;;;25.40;98.90;;;;;;4932524;29;20051;-78
2022/08/23 11:26:25;;;;;;;8.15;3.65;;;25.50;98.40;;;;;;4916291;29;20051;-78
2022/08/23 11:29:24;;;;;;;10.27;3.55;;;25.50;97.70;;;;;;4950799;28;20433;-78
2022/08/23 11:32:02;;;;;;;8.85;4.03;;;25.50;97.60;;;;;;4928493;29;20057;-78
2022/08/23 11:34:39;;;;;;;9.70;3.92;;;25.60;97.50;;;;;;4916734;29;20039;-78
2022/08/23 11:37:20;;;;;;;7.78;3.63;;;25.60;97.60;;;;;;4918335;29;20462;-78
2022/08/23 11:39:58;;;;;;;7.05;3.05;;;25.60;97.90;;;;;;4949321;29;20051;-78
2022/08/23 11:42:30;;;;;;;6.72;3.53;;;25.70;98.00;;;;;;4948682;28;20092;-78
2022/08/23 11:44:56;;;;;;;8.38;3.88;;;25.70;97.70;;;;;;4927313;29;20090;-77
2022/08/23 11:47:39;;;;;;;10.43;3.97;;;25.70;97.70;;;;;;4914813;29;20055;-78
2022/08/23 11:50:29;;;;;;;12.13;4.13;;;25.70;97.90;;;;;;4918174;29;20496;-78
2022/08/23 11:53:08;;;;;;;8.70;3.50;;;25.80;97.90;;;;;;4934005;29;20373;-78
2022/08/23 11:55:55;;;;;;;8.80;3.30;;;25.80;97.50;;;;;;4947678;28;20126;-78
2022/08/23 11:58:42;;;;;;;6.85;3.25;;;25.90;96.90;;;;;;4949675;29;20078;-78
2022/08/23 12:01:11;;;;;;;5.20;2.53;;;26.00;95.80;;;;;;4928607;29;20044;-78
2022/08/23 12:04:08;;;;;;;6.30;2.58;;;26.10;94.50;;;;;;4933344;29;20370;-78
2022/08/23 12:06:42;;;;;;;8.30;2.38;;;26.20;94.20;;;;;;4914955;29;20160;-78
2022/08/23 12:09:23;;;;;;;6.40;2.80;;;26.20;93.90;;;;;;4916563;29;20400;-79
2022/08/23 12:11:55;;;;;;;3.92;2.38;;;26.30;94.30;;;;;;4944019;28;20051;-78
2022/08/23 12:14:30;;;;;;;7.20;2.50;;;26.30;93.70;;;;;;4917963;29;20039;-78
2022/08/23 12:17:24;;;;;;;6.30;2.75;;;26.40;93.10;;;;;;4911278;29;20071;-78
2022/08/23 12:19:53;;;;;;;9.88;2.60;;;26.30;93.30;;;;;;4929110;29;20481;-78
2022/08/23 12:22:28;;;;;;;7.50;2.90;;;26.40;93.60;;;;;;4917392;29;20050;-78
2022/08/23 12:24:59;;;;;;;;;;;26.50;93.00;;;;;;4917492;29;20043;-78
2022/08/23 12:27:46;;;;;;;6.15;2.90;;;26.50;94.40;;;;;;4934507;29;20271;-78
2022/08/23 12:30:32;;;;;;;6.00;2.70;;;26.60;93.10;;;;;;4916976;29;20090;-78
2022/08/23 12:33:33;;;;;;;5.68;3.13;;;26.70;92.40;;;;;;4931693;29;20062;-78
2022/08/23 12:36:18;;;;;;;7.50;2.97;;;26.80;92.50;;;;;;4826728;29;20050;-78
2022/08/23 12:38:57;;;;;;;8.73;3.13;;;26.80;93.20;;;;;;4922763;29;20056;-79
2022/08/23 12:41:27;;;;;;;5.40;2.72;;;26.80;93.30;;;;;;4931980;29;20047;-79
2022/08/23 12:44:00;;;;;;;6.85;2.80;;;26.80;93.50;;;;;;4915941;29;20134;-78
2022/08/23 12:46:30;;;;;;;8.60;3.05;;;26.80;93.40;;;;;;4934328;29;20059;-78
2022/08/23 12:48:56;;;;;;;15.55;3.30;;;26.90;93.50;;;;;;4920902;29;20492;-79
2022/08/23 12:51:22;;;;;;;8.55;3.10;;;27.10;93.80;;;;;;4905353;29;20158;-79
2022/08/23 12:53:47;;;;;;;6.32;3.10;;;27.30;93.90;;;;;;4920274;29;20043;-79
2022/08/23 12:56:22;;;;;;;5.95;3.22;;;27.60;93.00;;;;;;4920566;29;20043;-79
2022/08/23 12:58:58;;;;;;;8.87;3.70;;;27.90;91.60;;;;;;4936754;29;20035;-79
2022/08/23 13:01:27;;;;;;;11.57;3.55;;;28.00;91.30;;;;;;4937745;29;20560;-79
2022/08/23 13:04:09;;;;;;;5.55;2.70;;;27.90;91.70;;;;;;4922264;29;20075;-79
2022/08/23 13:06:47;;;;;;;7.40;2.78;;;27.90;91.30;;;;;;4932026;29;20154;-78
2022/08/23 13:09:32;;;;;;;7.25;2.72;;;27.70;91.10;;;;;;4933673;29;20047;-80